aviador You're here:

OIAW Decoded Metar

AHWAZ in IRAN
Report Time2017-11-25 04:51:00
UTC Time2017-11-25 05:25:19
Flight Rules vfr VFR
Wind310° at 02 kt
W.Decomp.*RWY 30: 2.0 kt HW 0.2 kt RCW
W.Rank310° ranks 6
Current wind is below 310° avg. (5.8)
Visibility8000 m
Phenomena:N/A
Clouds:N/A
Expected CloudBase > 4,000 ft AGL from Temp-Dew spread
CeilingNone
Temp14°C (ISA -1)
Dew Point04°C (51% RH)
AAT12.0°C
QNH1025 hPa
Density Alt-322 ft
Elevation72 ft
Report Wrong Elevation
Raw Report
METAR OIAW 250451Z 31002KT 8000 NSC 14/04 Q1025=

Extra information for OIAW:More info

Metar Taf Metar & Taf Last 4 Metars F.Rules Stats Wind Profile Meteogram Temp Stats Airport Information Weather charts Add Link Nearby VenuesMetar ALERT Operation Metar Decoded Social comments